Time;durP1;ratioP1;P1;durP2;ratioP2;P2;SDS_P1;SDS_P2;PMS_P1;PMS_P2;Temp;Humidity;BMP_temperature;BMP_pressure;BME280_temperature;BME280_humidity;BME280_pressure;Samples;Min_cycle;Max_cycle;Signal;HPM_P1;HPM_P2
2021/04/25 00:01:23;;;;;;;;;;;;;;;-142.75;59.39;79421.66;5091692;28;19942;-74
2021/04/25 00:03:49;;;;;;;;;;;;;;;-142.75;59.70;79409.84;5073761;28;20053;-73
2021/04/25 00:06:14;;;;;;;;;;;;;;;-142.75;59.91;79398.03;5073755;28;19912;-74
2021/04/25 00:08:39;;;;;;;;;;;;;;;-142.75;60.16;79400.00;5073900;28;20013;-74
2021/04/25 00:11:04;;;;;;;;;;;;;;;-142.75;60.13;79386.19;5091776;28;20381;-73
2021/04/25 00:13:30;;;;;;;;;;;;;;;-142.75;59.92;79374.38;5073705;28;20301;-74
2021/04/25 00:15:55;;;;;;;;;;;;;;;-142.75;59.84;79374.38;5073734;28;20425;-74
2021/04/25 00:18:21;;;;;;;;;;;;;;;-142.75;59.84;79370.44;5099986;28;19928;-74
2021/04/25 00:20:46;;;;;;;;;;;;;;;-142.75;59.57;79372.41;5093602;28;19918;-72
2021/04/25 00:23:11;;;;;;;;;;;;;;;-142.75;59.27;79366.50;5091618;28;19916;-74
2021/04/25 00:25:36;;;;;;;;;;;;;;;-142.75;59.32;79358.63;5103319;28;19920;-73
2021/04/25 00:28:02;;;;;;;;;;;;;;;-142.75;59.37;79348.78;5083714;28;19964;-73
2021/04/25 00:30:27;;;;;;;;;;;;;;;-142.75;60.02;79325.13;5109499;28;19912;-71
2021/04/25 00:32:53;;;;;;;;;;;;;;;-142.75;59.88;79307.41;5108633;28;19955;-72
2021/04/25 00:35:19;;;;;;;;;;;;;;;-142.75;60.00;79283.78;5094386;28;19912;-74
2021/04/25 00:37:45;;;;;;;;;;;;;;;-142.75;59.52;79279.84;5091279;28;19999;-73
2021/04/25 00:40:12;;;;;;;;;;;;;;;-142.75;58.70;79269.97;5091437;28;19911;-73
2021/04/25 00:42:38;;;;;;;;;;;;;;;-142.75;59.37;79260.13;5072833;28;19955;-74
2021/04/25 00:45:04;;;;;;;;;;;;;;;-142.75;59.39;79275.88;5072534;28;19958;-73
2021/04/25 00:47:29;;;;;;;;;;;;;;;-142.75;59.12;79269.97;5072178;28;19919;-73
2021/04/25 00:49:55;;;;;;;;;;;;;;;-142.75;59.26;79264.06;5072382;28;19911;-73
2021/04/25 00:52:21;;;;;;;;;;;;;;;-142.75;59.15;79268.00;5073153;28;19912;-74
2021/04/25 00:54:46;;;;;;;;;;;;;;;-142.75;59.32;79266.03;5091095;28;19935;-74
2021/04/25 00:57:14;;;;;;;;;;;;;;;-142.75;59.71;79266.03;5100639;28;20388;-74
2021/04/25 00:59:40;;;;;;;;;;;;;;;-142.75;59.64;79268.00;5110941;28;19960;-74
2021/04/25 01:02:06;;;;;;;;;;;;;;;-142.75;59.61;79264.06;5111036;28;20018;-74
2021/04/25 01:04:33;;;;;;;;;;;;;;;-142.75;59.47;79248.31;5109405;28;19919;-73
2021/04/25 01:06:58;;;;;;;;;;;;;;;-142.75;59.43;79248.31;5072463;28;19912;-73
2021/04/25 01:09:23;;;;;;;;;;;;;;;-142.75;59.58;79252.25;5072713;28;19957;-73
2021/04/25 01:11:48;;;;;;;;;;;;;;;-142.75;59.89;79240.44;5090621;28;19934;-73
2021/04/25 01:14:14;;;;;;;;;;;;;;;-142.75;60.28;79228.63;5090660;28;20007;-74
2021/04/25 01:16:39;;;;;;;;;;;;;;;-142.75;60.46;79244.38;5090560;28;19912;-74
2021/04/25 01:19:05;;;;;;;;;;;;;;;-142.75;60.71;79254.22;5101187;28;19918;-74
2021/04/25 01:21:30;;;;;;;;;;;;;;;-142.75;61.15;79271.94;5111169;28;19965;-73
2021/04/25 01:23:55;;;;;;;;;;;;;;;-142.75;60.16;79285.75;5111309;28;19912;-73
2021/04/25 01:26:20;;;;;;;;;;;;;;;-142.75;60.85;79285.75;5110908;28;19942;-74
2021/04/25 01:28:46;;;;;;;;;;;;;;;-142.75;61.00;79287.72;5110798;28;19933;-74
2021/04/25 01:31:11;;;;;;;;;;;;;;;-142.75;60.95;79262.09;5096251;28;19943;-72
2021/04/25 01:33:36;;;;;;;;;;;;;;;-142.75;60.36;79240.44;5090418;28;20007;-73
2021/04/25 01:36:03;;;;;;;;;;;;;;;-142.75;59.41;79212.84;5096069;28;19938;-74
2021/04/25 01:38:29;;;;;;;;;;;;;;;-142.75;58.74;79206.94;5082205;28;19916;-73
2021/04/25 01:40:54;;;;;;;;;;;;;;;-142.75;58.87;79208.91;5090380;28;19912;-73
2021/04/25 01:43:19;;;;;;;;;;;;;;;-142.75;58.60;79224.69;5072100;28;19970;-74
2021/04/25 01:45:44;;;;;;;;;;;;;;;-142.75;58.80;79226.66;5089701;28;19919;-73
2021/04/25 01:48:10;;;;;;;;;;;;;;;-142.75;59.07;79222.72;5090253;28;19939;-73
2021/04/25 01:50:36;;;;;;;;;;;;;;;-142.75;59.01;79228.63;5071705;28;19911;-75
2021/04/25 01:53:02;;;;;;;;;;;;;;;-142.75;59.39;79236.50;5090755;28;19923;-74
2021/04/25 01:55:28;;;;;;;;;;;;;;;-142.75;59.29;79234.53;5072235;28;19912;-74
2021/04/25 01:57:54;;;;;;;;;;;;;;;-142.75;59.49;79226.66;5089956;28;20474;-72
2021/04/25 02:00:23;;;;;;;;;;;;;;;-142.75;59.75;79234.53;5072083;28;20057;-73
2021/04/25 02:02:52;;;;;;;;;;;;;;;-142.75;59.90;79240.44;5090036;28;19923;-74
2021/04/25 02:05:17;;;;;;;;;;;;;;;-142.75;59.96;79242.41;5090228;28;19912;-73
2021/04/25 02:07:42;;;;;;;;;;;;;;;-142.75;60.13;79250.28;5090087;28;19922;-73
2021/04/25 02:10:08;;;;;;;;;;;;;;;-142.75;60.02;79246.34;5091190;28;19912;-73
2021/04/25 02:12:34;;;;;;;;;;;;;;;-142.75;59.92;79248.31;5093830;28;19927;-72
2021/04/25 02:14:59;;;;;;;;;;;;;;;-142.75;59.99;79250.28;5075907;28;19916;-74
2021/04/25 02:17:24;;;;;;;;;;;;;;;-142.75;60.00;79252.25;5094073;28;19938;-72
2021/04/25 02:19:49;;;;;;;;;;;;;;;-142.75;59.70;79252.25;5076065;28;20286;-73
2021/04/25 02:22:15;;;;;;;;;;;;;;;-142.75;60.00;79252.25;5094134;28;19994;-73
2021/04/25 02:24:40;;;;;;;;;;;;;;;-142.75;59.69;79248.31;5093891;28;20331;-73
2021/04/25 02:27:05;;;;;;;;;;;;;;;-142.75;59.66;79244.38;5092405;28;19963;-73
2021/04/25 02:29:30;;;;;;;;;;;;;;;-142.75;59.47;79252.25;5075663;28;19916;-74
2021/04/25 02:31:55;;;;;;;;;;;;;;;-142.75;59.69;79252.25;5093462;28;20418;-72
2021/04/25 02:34:21;;;;;;;;;;;;;;;-142.75;59.88;79252.25;5093889;28;19924;-74
2021/04/25 02:36:46;;;;;;;;;;;;;;;-142.75;59.70;79252.25;5075227;28;19962;-73
2021/04/25 02:39:11;;;;;;;;;;;;;;;-142.75;59.86;79248.31;5075652;28;19911;-74
2021/04/25 02:41:36;;;;;;;;;;;;;;;-142.75;59.69;79246.34;5093316;28;20523;-73
2021/04/25 02:44:02;;;;;;;;;;;;;;;-142.75;59.90;79246.34;5109376;28;19918;-73
2021/04/25 02:46:27;;;;;;;;;;;;;;;-142.75;59.53;79250.28;5081986;28;19912;-73
2021/04/25 02:48:53;;;;;;;;;;;;;;;-142.75;59.82;79256.19;5075076;28;19950;-73
2021/04/25 02:51:18;;;;;;;;;;;;;;;-142.75;59.71;79264.06;5092479;28;19912;-74
2021/04/25 02:53:43;;;;;;;;;;;;;;;-142.75;59.90;79273.91;5093763;28;19923;-73
2021/04/25 02:56:08;;;;;;;;;;;;;;;-142.75;60.00;79287.72;5093454;28;19920;-71
2021/04/25 02:58:33;;;;;;;;;;;;;;;-142.75;59.46;79299.53;5093235;28;20334;-74
2021/04/25 03:00:59;;;;;;;;;;;;;;;-142.75;59.47;79311.34;5092902;28;19919;-73
2021/04/25 03:03:25;;;;;;;;;;;;;;;-142.75;59.34;79313.31;5093395;28;19920;-73
2021/04/25 03:05:53;;;;;;;;;;;;;;;-142.75;59.29;79315.28;5098985;28;19919;-73
2021/04/25 03:08:19;;;;;;;;;;;;;;;-142.75;58.97;79323.16;5092941;28;19965;-73
2021/04/25 03:10:44;;;;;;;;;;;;;;;-142.75;59.16;79336.94;5103279;28;20365;-73
2021/04/25 03:13:09;;;;;;;;;;;;;;;-142.75;59.04;79344.84;5094992;28;19915;-73
2021/04/25 03:15:34;;;;;;;;;;;;;;;-142.75;59.20;79354.69;5095055;28;19980;-74
2021/04/25 03:18:00;;;;;;;;;;;;;;;-142.75;58.96;79360.59;5113163;28;19911;-74
2021/04/25 03:20:25;;;;;;;;;;;;;;;-142.75;59.15;79370.44;5094660;28;20373;-72
2021/04/25 03:22:50;;;;;;;;;;;;;;;-142.75;59.09;79374.38;5113591;28;19928;-75
2021/04/25 03:25:16;;;;;;;;;;;;;;;-142.75;58.94;79378.31;5094845;28;19918;-74
2021/04/25 03:27:41;;;;;;;;;;;;;;;-142.75;58.29;79374.38;5113108;28;19911;-72
2021/04/25 03:30:08;;;;;;;;;;;;;;;-142.75;58.87;79378.31;5112671;28;19923;-73
2021/04/25 03:32:33;;;;;;;;;;;;;;;-142.75;59.78;79382.25;5112616;28;20429;-73
2021/04/25 03:34:59;;;;;;;;;;;;;;;-142.75;59.93;79388.16;5094634;28;19994;-73
2021/04/25 03:37:24;;;;;;;;;;;;;;;-142.75;59.54;79386.19;5094374;28;20298;-72
2021/04/25 03:39:49;;;;;;;;;;;;;;;-142.75;59.19;79374.38;5113030;28;19912;-74
2021/04/25 03:42:14;;;;;;;;;;;;;;;-142.75;58.60;79358.63;5112628;28;19916;-73
2021/04/25 03:44:39;;;;;;;;;;;;;;;-142.75;59.46;79350.75;5094455;28;19912;-73
2021/04/25 03:47:05;;;;;;;;;;;;;;;-142.75;58.58;79358.63;5086818;28;19919;-73
2021/04/25 03:49:30;;;;;;;;;;;;;;;-142.75;58.52;79354.69;5092432;28;19920;-73
2021/04/25 03:51:55;;;;;;;;;;;;;;;-142.75;59.07;79350.75;5074276;28;20418;-74
2021/04/25 03:54:21;;;;;;;;;;;;;;;-142.75;58.47;79338.94;5092237;28;19923;-74
2021/04/25 03:56:46;;;;;;;;;;;;;;;-142.75;58.26;79331.03;5073853;28;19911;-73
2021/04/25 03:59:12;;;;;;;;;;;;;;;-142.75;58.19;79321.19;5073756;28;20006;-71
2021/04/25 04:01:37;;;;;;;;;;;;;;;-142.75;58.04;79309.38;5091900;28;19940;-71
2021/04/25 04:04:03;;;;;;;;;;;;;;;-142.75;58.01;79305.44;5073991;28;19923;-74
2021/04/25 04:06:28;;;;;;;;;;;;;;;-142.75;57.91;79299.53;5098985;28;19964;-74
2021/04/25 04:08:53;;;;;;;;;;;;;;;-142.75;58.44;79293.63;5112487;28;19912;-74
2021/04/25 04:11:18;;;;;;;;;;;;;;;-142.75;58.21;79287.72;5111945;28;19934;-74
2021/04/25 04:13:43;;;;;;;;;;;;;;;-142.75;58.26;79279.84;5112090;28;19963;-73
2021/04/25 04:16:09;;;;;;;;;;;;;;;-142.75;58.07;79273.91;5112139;28;19954;-72
2021/04/25 04:18:34;;;;;;;;;;;;;;;-142.75;58.06;79279.84;5093998;28;19911;-74
2021/04/25 04:20:59;;;;;;;;;;;;;;;-142.75;58.29;79268.00;5111539;28;20011;-73
2021/04/25 04:23:24;;;;;;;;;;;;;;;-142.75;57.85;79271.94;5094542;28;19919;-73
2021/04/25 04:25:49;;;;;;;;;;;;;;;-142.75;57.76;79248.31;5112554;28;19918;-75
2021/04/25 04:28:15;;;;;;;;;;;;;;;-142.75;57.60;79240.44;5100896;28;19912;-74
2021/04/25 04:30:40;;;;;;;;;;;;;;;-142.75;57.49;79232.56;5092028;28;19919;-74
2021/04/25 04:33:05;;;;;;;;;;;;;;;-142.75;57.93;79244.38;5091309;28;19916;-74
2021/04/25 04:35:30;;;;;;;;;;;;;;;-142.75;57.79;79254.22;5099932;28;19911;-73
2021/04/25 04:37:56;;;;;;;;;;;;;;;-142.75;58.09;79250.28;5112461;28;19911;-74
2021/04/25 04:40:21;;;;;;;;;;;;;;;-142.75;57.93;79250.28;5112116;28;19912;-70
2021/04/25 04:42:47;;;;;;;;;;;;;;;-142.75;58.06;79244.38;5093926;28;19912;-73
2021/04/25 04:45:13;;;;;;;;;;;;;;;-142.75;58.10;79240.44;5093799;28;19915;-73
2021/04/25 04:47:40;;;;;;;;;;;;;;;-142.75;58.50;79244.38;5112128;28;19911;-73
2021/04/25 04:50:05;;;;;;;;;;;;;;;-142.75;58.06;79240.44;5112214;28;20416;-73
2021/04/25 04:52:30;;;;;;;;;;;;;;;-142.75;57.47;79238.47;5093922;28;19912;-72
2021/04/25 04:54:57;;;;;;;;;;;;;;;-142.75;57.19;79232.56;5112136;28;19925;-72
2021/04/25 04:57:23;;;;;;;;;;;;;;;-142.75;56.38;79236.50;5111968;28;20002;-73
2021/04/25 04:59:49;;;;;;;;;;;;;;;-142.75;55.95;79220.75;5093823;28;20335;-72
2021/04/25 05:02:14;;;;;;;;;;;;;;;-142.75;55.52;79222.72;5093539;28;19916;-72
2021/04/25 05:04:39;;;;;;;;;;;;;;;-142.75;54.11;79222.72;5079489;28;19964;-73
2021/04/25 05:07:04;;;;;;;;;;;;;;;-142.75;54.63;79224.69;5087265;22;19928;-73
2021/04/25 05:09:30;;;;;;;;;;;;;;;-142.75;53.66;79222.72;5089068;28;19932;-74
2021/04/25 05:11:55;;;;;;;;;;;;;;;-142.75;53.35;79226.66;5090422;28;19911;-73
2021/04/25 05:14:20;;;;;;;;;;;;;;;-142.75;52.37;79222.72;5092067;28;19916;-74
2021/04/25 05:16:46;;;;;;;;;;;;;;;-142.75;53.80;79214.81;5094005;28;20007;-74
2021/04/25 05:19:11;;;;;;;;;;;;;;;-142.75;53.37;79216.78;5094688;28;19918;-73
2021/04/25 05:21:36;;;;;;;;;;;;;;;-142.75;51.07;79220.75;5111883;28;20311;-74
2021/04/25 05:24:01;;;;;;;;;;;;;;;-142.75;51.87;79218.75;5104632;28;19912;-74
2021/04/25 05:26:27;;;;;;;;;;;;;;;-142.75;52.01;79220.75;5074013;28;20015;-73
2021/04/25 05:28:52;;;;;;;;;;;;;;;-142.75;52.25;79216.78;5091775;28;19934;-74
2021/04/25 05:31:17;;;;;;;;;;;;;;;-142.75;52.12;79203.00;5073982;28;19958;-74
2021/04/25 05:33:42;;;;;;;;;;;;;;;-142.75;52.54;79214.81;5091894;28;19916;-75
2021/04/25 05:36:07;;;;;;;;;;;;;;;-142.75;52.64;79208.91;5092150;28;19976;-75
2021/04/25 05:38:32;;;;;;;;;;;;;;;-142.75;52.53;79210.88;5091902;28;20389;-75
2021/04/25 05:40:58;;;;;;;;;;;;;;;-142.75;52.91;79208.91;5092161;28;19939;-75
2021/04/25 05:43:23;;;;;;;;;;;;;;;-142.75;53.15;79212.84;5074351;28;20380;-74
2021/04/25 05:45:48;;;;;;;;;;;;;;;-142.75;53.41;79201.03;5074034;28;19912;-75
2021/04/25 05:48:13;;;;;;;;;;;;;;;-142.75;53.04;79210.88;5073945;28;19912;-76
2021/04/25 05:50:39;;;;;;;;;;;;;;;-142.75;52.89;79208.91;5092167;28;20010;-75
2021/04/25 05:53:04;;;;;;;;;;;;;;;-142.75;52.91;79195.13;5092224;28;20337;-74
2021/04/25 05:55:29;;;;;;;;;;;;;;;-142.75;53.30;79201.03;5074211;28;19989;-76
2021/04/25 05:57:54;;;;;;;;;;;;;;;-142.75;53.43;79203.00;5092416;28;19912;-74
2021/04/25 06:00:22;;;;;;;;;;;;;;;-142.75;52.95;79197.09;5074422;28;20011;-74
2021/04/25 06:02:47;;;;;;;;;;;;;;;-142.75;52.43;79185.28;5091791;28;19916;-75
2021/04/25 06:05:13;;;;;;;;;;;;;;;-142.75;52.24;79187.25;5074357;28;19919;-76
2021/04/25 06:07:38;;;;;;;;;;;;;;;-142.75;51.33;79187.25;5073524;28;19923;-74
2021/04/25 06:10:04;;;;;;;;;;;;;;;-142.75;52.11;79193.16;5091750;28;20281;-75
2021/04/25 06:12:30;;;;;;;;;;;;;;;-142.75;52.72;79189.22;5099037;28;19911;-75
2021/04/25 06:14:55;;;;;;;;;;;;;;;-142.75;52.17;79179.38;5093767;28;19912;-75
2021/04/25 06:17:20;;;;;;;;;;;;;;;-142.75;51.70;79165.59;5112075;28;19956;-75
2021/04/25 06:19:45;;;;;;;;;;;;;;;-142.75;52.34;79163.63;5093387;28;19912;-76
2021/04/25 06:22:13;;;;;;;;;;;;;;;-142.75;52.11;79159.69;5111556;28;20128;-76
2021/04/25 06:24:39;;;;;;;;;;;;;;;-142.75;52.04;79147.84;5111941;28;20333;-74
2021/04/25 06:27:04;;;;;;;;;;;;;;;-142.75;52.61;79153.75;5111445;28;19911;-75
2021/04/25 06:29:29;;;;;;;;;;;;;;;-142.75;52.28;79149.81;5111531;28;19918;-74
2021/04/25 06:31:55;;;;;;;;;;;;;;;-142.75;51.30;79141.94;5111116;28;19991;-74
2021/04/25 06:34:20;;;;;;;;;;;;;;;-142.75;52.41;79141.94;5092921;28;20395;-76
2021/04/25 06:36:45;;;;;;;;;;;;;;;-142.75;52.53;79143.91;5092867;28;19911;-75
2021/04/25 06:39:11;;;;;;;;;;;;;;;-142.75;52.61;79130.13;5092927;28;19923;-75
2021/04/25 06:41:36;;;;;;;;;;;;;;;-142.75;52.41;79134.06;5107586;28;19912;-73
2021/04/25 06:44:02;;;;;;;;;;;;;;;-142.75;51.65;79139.97;5073219;28;20030;-76
2021/04/25 06:46:27;;;;;;;;;;;;;;;-142.75;52.78;79136.03;5091181;28;20057;-74
2021/04/25 06:48:53;;;;;;;;;;;;;;;-142.75;52.64;79138.00;5090961;28;19957;-75
2021/04/25 06:51:18;;;;;;;;;;;;;;;-142.75;53.09;79132.09;5089463;28;20323;-75
2021/04/25 06:53:43;;;;;;;;;;;;;;;-142.75;52.88;79134.06;5071827;28;19939;-75
2021/04/25 06:56:08;;;;;;;;;;;;;;;-142.75;53.14;79126.19;5091281;28;20042;-75
2021/04/25 06:58:34;;;;;;;;;;;;;;;-142.75;52.17;79130.13;5094244;28;19939;-75
2021/04/25 07:00:59;;;;;;;;;;;;;;;-142.75;52.31;79126.19;5093924;28;19974;-75
2021/04/25 07:03:24;;;;;;;;;;;;;;;-142.75;52.69;79126.19;5093583;28;19919;-74
2021/04/25 07:05:49;;;;;;;;;;;;;;;-142.75;52.88;79116.34;5075382;28;19966;-74
2021/04/25 07:08:14;;;;;;;;;;;;;;;-142.75;52.28;79108.47;5109742;28;19911;-74
2021/04/25 07:10:40;;;;;;;;;;;;;;;-142.75;51.93;79110.44;5095345;28;19918;-74
2021/04/25 07:13:05;;;;;;;;;;;;;;;-142.75;52.00;79098.63;5109865;28;20325;-75
2021/04/25 07:15:30;;;;;;;;;;;;;;;-142.75;52.06;79102.56;5094144;28;20342;-75
2021/04/25 07:17:56;;;;;;;;;;;;;;;-142.75;50.39;79086.78;5094264;28;20005;-74
2021/04/25 07:20:21;;;;;;;;;;;;;;;-142.75;50.26;79076.94;5093816;28;19938;-72
2021/04/25 07:22:46;;;;;;;;;;;;;;;-142.75;49.48;79074.97;5093861;28;20377;-73
2021/04/25 07:25:12;;;;;;;;;;;;;;;-142.75;48.97;79059.22;5075544;28;19919;-73
2021/04/25 07:27:37;;;;;;;;;;;;;;;-142.75;49.32;79061.19;5093813;28;19941;-75
2021/04/25 07:30:06;;;;;;;;;;;;;;;-142.75;50.10;79059.22;5106579;28;20006;-74
2021/04/25 07:32:31;;;;;;;;;;;;;;;-142.75;48.81;79055.28;5113615;28;19931;-74
2021/04/25 07:34:57;;;;;;;;;;;;;;;-142.75;48.81;79047.41;5114084;28;20367;-75
2021/04/25 07:37:22;;;;;;;;;;;;;;;-142.75;48.69;79051.34;5114295;28;19980;-72
2021/04/25 07:39:47;;;;;;;;;;;;;;;-142.75;48.34;79035.59;5095665;28;19915;-73
2021/04/25 07:42:14;;;;;;;;;;;;;;;-142.75;48.95;79037.56;5095695;28;19912;-74
2021/04/25 07:44:41;;;;;;;;;;;;;;;-142.75;49.81;79031.66;5113794;28;20449;-76
2021/04/25 07:47:06;;;;;;;;;;;;;;;-142.75;48.65;79015.88;5094802;28;19912;-74
2021/04/25 07:49:32;;;;;;;;;;;;;;;-142.75;49.25;79035.59;5114034;28;20060;-74
2021/04/25 07:51:57;;;;;;;;;;;;;;;-142.75;48.82;79027.69;5094869;28;19915;-74
2021/04/25 07:54:24;;;;;;;;;;;;;;;-142.75;49.17;79037.56;5113499;28;19995;-73
2021/04/25 07:56:49;;;;;;;;;;;;;;;-142.75;49.74;79021.78;5093402;28;19930;-74
2021/04/25 07:59:14;;;;;;;;;;;;;;;-142.75;50.42;79017.84;5075376;28;19915;-74
2021/04/25 08:01:39;;;;;;;;;;;;;;;-142.75;49.99;79006.03;5074081;28;19912;-74
2021/04/25 08:04:05;;;;;;;;;;;;;;;-142.75;48.73;78990.28;5074790;28;19926;-75
2021/04/25 08:06:30;;;;;;;;;;;;;;;-142.75;48.06;79013.91;5092324;28;19994;-74
2021/04/25 08:08:56;;;;;;;;;;;;;;;-142.75;48.79;78996.19;5094677;28;19945;-73
2021/04/25 08:11:21;;;;;;;;;;;;;;;-142.75;48.10;78976.50;5112477;28;19911;-74
2021/04/25 08:13:46;;;;;;;;;;;;;;;-142.75;47.39;78984.38;5112664;28;19916;-75
2021/04/25 08:16:12;;;;;;;;;;;;;;;-142.75;47.56;78980.44;5104574;28;19919;-74
2021/04/25 08:18:37;;;;;;;;;;;;;;;-142.75;47.26;78970.59;5092117;28;19915;-74
2021/04/25 08:21:02;;;;;;;;;;;;;;;-142.75;47.73;78970.59;5073695;28;20380;-73
2021/04/25 08:23:27;;;;;;;;;;;;;;;-142.75;47.13;78958.75;5074107;28;19948;-75
2021/04/25 08:25:52;;;;;;;;;;;;;;;-142.75;46.73;78950.88;5073835;28;19916;-74
2021/04/25 08:28:18;;;;;;;;;;;;;;;-142.75;46.92;78960.72;5099533;28;19916;-74
2021/04/25 08:30:44;;;;;;;;;;;;;;;-142.75;47.70;78935.13;5093727;28;20021;-74
2021/04/25 08:33:09;;;;;;;;;;;;;;;-142.75;46.76;78941.03;5077283;28;19916;-76
2021/04/25 08:35:34;;;;;;;;;;;;;;;-142.75;46.57;78958.75;5073526;28;20370;-74
2021/04/25 08:37:59;;;;;;;;;;;;;;;-142.75;46.62;78966.66;5074106;28;19954;-74
2021/04/25 08:40:24;;;;;;;;;;;;;;;-142.75;47.84;78929.22;5091521;28;20006;-75
2021/04/25 08:42:50;;;;;;;;;;;;;;;-142.75;47.77;78905.59;5091440;28;19995;-73
2021/04/25 08:45:15;;;;;;;;;;;;;;;-142.75;47.11;78899.69;5091970;28;19920;-74
2021/04/25 08:47:50;;;;;;;;;;;;;;;-142.75;46.74;78889.81;5074202;28;19916;-77
2021/04/25 08:50:15;;;;;;;;;;;;;;;-142.75;46.88;78881.94;5091283;28;19918;-74
2021/04/25 08:52:40;;;;;;;;;;;;;;;-142.75;46.95;78872.09;5111704;28;19919;-74
2021/04/25 08:55:06;;;;;;;;;;;;;;;-142.75;46.25;78872.09;5093806;28;19935;-75
2021/04/25 08:57:31;;;;;;;;;;;;;;;-142.75;45.91;78864.22;5111959;28;19919;-73
2021/04/25 08:59:56;;;;;;;;;;;;;;;-142.75;46.03;78874.06;5111934;28;20055;-74
2021/04/25 09:02:21;;;;;;;;;;;;;;;-142.75;46.10;78876.03;5111731;28;19951;-72
2021/04/25 09:04:46;;;;;;;;;;;;;;;-142.75;46.49;78842.56;5108955;28;19919;-73
2021/04/25 09:07:16;;;;;;;;;;;;;;;-142.75;46.47;78854.38;5091650;28;19918;-72
2021/04/25 09:09:42;;;;;;;;;;;;;;;-142.75;46.89;78870.13;5091537;28;19918;-73
2021/04/25 09:12:08;;;;;;;;;;;;;;;-142.75;46.48;78848.47;5091198;28;19954;-74
2021/04/25 09:14:36;;;;;;;;;;;;;;;-142.75;45.55;78848.47;5088364;28;19971;-74
2021/04/25 09:17:02;;;;;;;;;;;;;;;-142.75;45.90;78854.38;5089767;28;19981;-75
2021/04/25 09:19:47;;;;;;;;;;;;;;;-142.75;46.00;78830.75;5090858;28;19939;-74
2021/04/25 09:22:12;;;;;;;;;;;;;;;-142.75;45.65;78807.09;5090839;28;20413;-72
2021/04/25 09:24:37;;;;;;;;;;;;;;;-142.75;45.98;78809.06;5093346;28;19992;-74
2021/04/25 09:27:03;;;;;;;;;;;;;;;-142.75;45.41;78777.56;5110966;28;19934;-75
2021/04/25 09:29:47;;;;;;;;;;;;;;;-142.75;44.82;78767.72;5101406;28;19919;-74
2021/04/25 09:32:23;;;;;;;;;;;;;;;-142.75;44.53;78740.13;5074610;28;19918;-74
2021/04/25 09:34:48;;;;;;;;;;;;;;;-142.75;44.67;78748.03;5111111;28;19919;-75
2021/04/25 09:37:14;;;;;;;;;;;;;;;-142.75;44.10;78748.03;5111738;28;19994;-73
2021/04/25 09:39:57;;;;;;;;;;;;;;;-142.75;44.88;78712.56;5111579;28;19916;-75
2021/04/25 09:42:22;;;;;;;;;;;;;;;-142.75;43.98;78708.63;5111594;28;19923;-74
2021/04/25 09:44:47;;;;;;;;;;;;;;;-142.75;44.16;78681.06;5111577;28;20334;-74
2021/04/25 09:47:12;;;;;;;;;;;;;;;-142.75;43.14;78694.84;5093138;28;19954;-73
2021/04/25 09:49:45;;;;;;;;;;;;;;;-142.75;42.82;78704.69;5111520;28;19915;-74
2021/04/25 09:52:12;;;;;;;;;;;;;;;-142.75;43.54;78696.81;5093178;28;20013;-74
2021/04/25 09:54:38;;;;;;;;;;;;;;;-142.75;44.44;78685.00;5109873;28;19916;-74
2021/04/25 09:57:03;;;;;;;;;;;;;;;-142.75;44.47;78694.84;5071225;28;19919;-73
2021/04/25 09:59:28;;;;;;;;;;;;;;;-142.75;44.31;78708.63;5090435;28;19912;-75
2021/04/25 10:02:04;;;;;;;;;;;;;;;-142.75;44.23;78688.94;5090363;28;20404;-74
2021/04/25 10:04:37;;;;;;;;;;;;;;;-142.75;43.86;78688.94;5071592;28;19912;-74
2021/04/25 10:07:06;;;;;;;;;;;;;;;-142.75;43.94;78700.75;5089696;28;20377;-73
2021/04/25 10:09:32;;;;;;;;;;;;;;;-142.75;45.03;78698.78;5094732;28;19915;-75
2021/04/25 10:11:59;;;;;;;;;;;;;;;-142.75;44.13;78665.28;5110979;28;20337;-74
2021/04/25 10:14:26;;;;;;;;;;;;;;;-142.75;43.64;78692.88;5111160;28;19915;-76
2021/04/25 10:16:52;;;;;;;;;;;;;;;-142.75;43.73;78653.47;5093175;28;19953;-74
2021/04/25 10:19:18;;;;;;;;;;;;;;;-142.75;43.99;78657.41;5092922;28;19962;-73
2021/04/25 10:21:45;;;;;;;;;;;;;;;-142.75;43.99;78653.47;5110833;28;20004;-74
2021/04/25 10:24:10;;;;;;;;;;;;;;;-142.75;43.93;78629.84;5093003;28;19919;-74
2021/04/25 10:26:56;;;;;;;;;;;;;;;-142.75;44.42;78594.41;5111094;28;20289;-76
2021/04/25 10:29:26;;;;;;;;;;;;;;;-142.75;44.05;78578.63;5096619;28;19911;-74
2021/04/25 10:31:56;;;;;;;;;;;;;;;-142.75;42.61;78586.53;5113103;28;20006;-73
2021/04/25 10:34:23;;;;;;;;;;;;;;;-142.75;42.73;78618.03;5115001;28;20308;-74
2021/04/25 10:36:50;;;;;;;;;;;;;;;-142.75;43.63;78629.84;5114504;28;19916;-74
2021/04/25 10:39:34;;;;;;;;;;;;;;;-142.75;44.01;78586.53;5114866;28;19912;-75
2021/04/25 10:42:21;;;;;;;;;;;;;;;-142.75;43.24;78562.88;5096222;28;20007;-74
2021/04/25 10:44:56;;;;;;;;;;;;;;;-142.75;42.16;78539.25;5114840;28;19912;-74
2021/04/25 10:47:21;;;;;;;;;;;;;;;-142.75;43.18;78562.88;5105126;28;20372;-75
2021/04/25 10:49:46;;;;;;;;;;;;;;;-142.75;43.96;78562.88;5076151;28;19919;-74
2021/04/25 10:52:20;;;;;;;;;;;;;;;-142.75;43.38;78545.16;5093943;28;19965;-72
2021/04/25 10:55:04;;;;;;;;;;;;;;;-142.75;43.32;78574.69;5112502;28;20312;-71
2021/04/25 10:57:29;;;;;;;;;;;;;;;-142.75;42.61;78553.03;5114239;28;19919;-73
2021/04/25 11:00:14;;;;;;;;;;;;;;;-142.75;42.51;78586.53;5114545;28;19915;-73
2021/04/25 11:02:49;;;;;;;;;;;;;;;-142.75;44.01;78620.00;5113822;28;20010;-75
2021/04/25 11:05:16;;;;;;;;;;;;;;;-142.75;43.43;78641.66;5095953;28;19911;-75
2021/04/25 11:07:42;;;;;;;;;;;;;;;-142.75;43.44;78621.97;5124595;22;21014;-71
2021/04/25 11:10:08;;;;;;;;;;;;;;;-142.75;44.23;78657.41;5073874;28;19927;-72
2021/04/25 11:12:38;;;;;;;;;;;;;;;-142.75;44.42;78657.41;5091848;28;19923;-72
2021/04/25 11:15:04;;;;;;;;;;;;;;;-142.75;45.36;78653.47;5075313;28;19920;-71
2021/04/25 11:17:29;;;;;;;;;;;;;;;-142.75;45.11;78649.53;5093715;28;20373;-72
2021/04/25 11:19:55;;;;;;;;;;;;;;;-142.75;45.46;78629.84;5093559;28;19924;-70
2021/04/25 11:22:39;;;;;;;;;;;;;;;-142.75;45.30;78631.81;5093015;28;19972;-71
2021/04/25 11:25:23;;;;;;;;;;;;;;;-142.75;45.43;78637.72;5093370;28;19912;-72
2021/04/25 11:27:48;;;;;;;;;;;;;;;-142.75;45.60;78645.59;5092925;28;19977;-73
2021/04/25 11:30:32;;;;;;;;;;;;;;;-142.75;44.31;78629.84;5075515;28;20274;-72
2021/04/25 11:33:17;;;;;;;;;;;;;;;-142.75;45.80;78596.38;5093730;28;20321;-72
2021/04/25 11:35:43;;;;;;;;;;;;;;;-142.75;44.25;78590.47;5093283;28;19912;-72
2021/04/25 11:38:09;;;;;;;;;;;;;;;-142.75;44.89;78578.63;5093436;28;19919;-71
2021/04/25 11:40:34;;;;;;;;;;;;;;;-142.75;44.01;78551.06;5075035;28;19911;-73
2021/04/25 11:42:59;;;;;;;;;;;;;;;-142.75;42.32;78499.88;5092834;28;20293;-72
2021/04/25 11:45:29;;;;;;;;;;;;;;;-142.75;43.56;78572.72;5093055;28;19981;-73
2021/04/25 11:47:59;;;;;;;;;;;;;;;-142.75;43.62;78513.66;5074745;28;19912;-72
2021/04/25 11:50:28;;;;;;;;;;;;;;;-142.75;43.51;78488.03;5092573;28;20372;-72
2021/04/25 11:52:54;;;;;;;;;;;;;;;-142.75;43.27;78529.41;5092910;28;19919;-72
2021/04/25 11:55:19;;;;;;;;;;;;;;;-142.75;43.70;78533.34;5092960;28;19920;-71
2021/04/25 11:57:46;;;;;;;;;;;;;;;-142.75;43.32;78555.00;5092864;28;20270;-73
2021/04/25 12:00:12;;;;;;;;;;;;;;;-142.75;42.99;78551.06;5092355;28;19951;-70
2021/04/25 12:02:44;;;;;;;;;;;;;;;-142.75;44.04;78562.88;5092518;28;19916;-71
2021/04/25 12:05:11;;;;;;;;;;;;;;;-142.75;44.28;78527.44;5074544;28;19919;-72
2021/04/25 12:07:49;;;;;;;;;;;;;;;-142.75;44.28;78501.84;5092429;28;20004;-70
2021/04/25 12:10:35;;;;;;;;;;;;;;;-142.75;43.04;78482.13;5092590;28;20000;-71
2021/04/25 12:13:04;;;;;;;;;;;;;;;-142.75;42.59;78448.66;5074279;28;19982;-72
2021/04/25 12:15:30;;;;;;;;;;;;;;;-142.75;43.08;78440.78;5092336;28;19920;-72
2021/04/25 12:17:56;;;;;;;;;;;;;;;-142.75;43.32;78415.19;5092384;28;19924;-72
2021/04/25 12:20:22;;;;;;;;;;;;;;;-142.75;42.28;78397.44;5074060;28;20014;-70
2021/04/25 12:22:48;;;;;;;;;;;;;;;-142.75;42.04;78413.22;5092323;28;19912;-72
2021/04/25 12:25:13;;;;;;;;;;;;;;;-142.75;42.16;78417.16;5092328;28;19927;-71